createdAt,value
2024-02-24T00:00:22.059Z,67.61
2024-02-24T00:01:23.891Z,67.89
2024-02-24T00:02:25.503Z,68.38
2024-02-24T00:03:27.035Z,69.56
2024-02-24T00:04:30.236Z,69.06
2024-02-24T00:05:31.857Z,69.61
2024-02-24T00:06:33.497Z,69.33
2024-02-24T00:07:35.100Z,69.29
2024-02-24T00:08:36.755Z,68.94
2024-02-24T00:09:38.408Z,68.68
2024-02-24T00:10:40.040Z,69.39
2024-02-24T00:11:44.589Z,69.23
2024-02-24T00:12:46.259Z,69.56
2024-02-24T00:13:48.119Z,69.65
2024-02-24T00:14:49.704Z,70.09
2024-02-24T00:15:51.379Z,70.71
2024-02-24T00:16:53.137Z,70.04
2024-02-24T00:17:54.858Z,69.39
2024-02-24T00:18:57.755Z,69.90
2024-02-24T00:19:59.327Z,70.18
2024-02-24T00:21:00.915Z,70.53
2024-02-24T00:22:02.519Z,70.68
2024-02-24T00:23:04.360Z,70.64
2024-02-24T00:24:06.426Z,70.03
2024-02-24T00:25:08.017Z,69.55
2024-02-24T00:26:09.591Z,69.75
2024-02-24T00:27:11.173Z,69.42
2024-02-24T00:28:12.761Z,69.87
2024-02-24T00:29:14.401Z,70.28
2024-02-24T00:30:16.676Z,71.07
2024-02-24T00:31:18.339Z,71.35
2024-02-24T00:32:20.125Z,70.92
2024-02-24T00:33:21.840Z,71.07
2024-02-24T00:34:23.403Z,71.66
2024-02-24T00:35:29.288Z,71.74
2024-02-24T00:36:31.003Z,71.70
2024-02-24T00:37:32.644Z,72.21
2024-02-24T00:38:34.242Z,71.84
2024-02-24T00:39:35.781Z,71.55
2024-02-24T00:40:37.326Z,71.50
2024-02-24T00:41:38.950Z,72.44
2024-02-24T00:42:40.558Z,72.11
2024-02-24T00:43:45.074Z,73.00
2024-02-24T00:44:46.692Z,73.07
2024-02-24T00:45:48.776Z,72.22
2024-02-24T00:46:50.351Z,72.64
2024-02-24T00:47:52.097Z,72.26
2024-02-24T00:48:53.724Z,71.73
2024-02-24T00:49:55.290Z,71.41
2024-02-24T00:50:56.891Z,71.46
2024-02-24T00:51:58.446Z,71.83
2024-02-24T00:53:00.058Z,71.52
2024-02-24T00:54:01.742Z,71.33
2024-02-24T00:55:03.716Z,70.78
2024-02-24T00:56:05.852Z,71.56
2024-02-24T00:57:07.551Z,71.72
2024-02-24T00:58:09.110Z,73.10
2024-02-24T00:59:10.648Z,73.01
2024-02-24T01:00:12.602Z,73.25
2024-02-24T01:01:14.392Z,73.91
2024-02-24T01:02:16.039Z,73.91
2024-02-24T01:03:17.661Z,73.84
2024-02-24T01:04:21.481Z,73.89
2024-02-24T01:05:25.143Z,73.71
2024-02-24T01:06:26.750Z,73.07
2024-02-24T01:07:28.297Z,72.64
2024-02-24T01:08:29.935Z,72.60
2024-02-24T01:09:31.582Z,72.56
2024-02-24T01:10:33.202Z,72.76
2024-02-24T01:11:34.869Z,73.03
2024-02-24T01:12:36.671Z,73.50
2024-02-24T01:13:38.395Z,73.21
2024-02-24T01:14:40.387Z,73.87
2024-02-24T01:15:41.980Z,73.95
2024-02-24T01:16:45.663Z,74.38
2024-02-24T01:17:48.054Z,74.00
2024-02-24T01:18:52.438Z,73.07
2024-02-24T01:19:54.114Z,72.50
2024-02-24T01:20:56.231Z,72.73
2024-02-24T01:21:58.689Z,72.62
2024-02-24T01:23:01.601Z,72.82
2024-02-24T01:24:03.463Z,72.43
2024-02-24T01:25:05.457Z,72.68
2024-02-24T01:26:06.980Z,73.08
2024-02-24T01:27:08.574Z,73.22
2024-02-24T01:28:10.137Z,73.49
2024-02-24T01:29:11.720Z,73.62
2024-02-24T01:30:13.415Z,73.39
2024-02-24T01:31:15.034Z,73.31
2024-02-24T01:32:18.091Z,73.08
2024-02-24T01:33:19.814Z,72.90
2024-02-24T01:34:21.672Z,72.87
2024-02-24T01:35:23.333Z,72.71
2024-02-24T01:36:27.866Z,73.07
2024-02-24T01:37:29.495Z,73.46
2024-02-24T01:38:31.123Z,73.14
2024-02-24T01:39:33.540Z,73.01
2024-02-24T01:40:35.176Z,73.28
2024-02-24T01:41:36.831Z,73.42
2024-02-24T01:42:38.466Z,73.67
2024-02-24T01:43:40.054Z,73.84
2024-02-24T01:44:41.638Z,73.30
2024-02-24T01:45:43.308Z,73.24
2024-02-24T01:46:48.730Z,72.66
2024-02-24T01:47:51.945Z,72.96
2024-02-24T01:48:53.825Z,72.87
2024-02-24T01:49:56.738Z,72.97
2024-02-24T01:50:59.966Z,72.90
2024-02-24T01:52:02.044Z,72.90
2024-02-24T01:53:04.750Z,73.50
2024-02-24T01:54:07.002Z,73.62
2024-02-24T01:55:09.216Z,72.80
2024-02-24T01:56:11.428Z,72.72
2024-02-24T01:57:13.772Z,73.26
2024-02-24T01:58:18.433Z,73.27
2024-02-24T01:59:20.087Z,72.84
2024-02-24T02:00:21.767Z,73.31
2024-02-24T02:01:23.644Z,73.32
2024-02-24T02:02:25.272Z,72.90
2024-02-24T02:03:27.457Z,73.31
2024-02-24T02:04:29.221Z,73.58
2024-02-24T02:05:30.988Z,73.50
2024-02-24T02:06:33.814Z,73.39
2024-02-24T02:07:36.610Z,73.10
2024-02-24T02:08:38.556Z,72.74
2024-02-24T02:10:12.465Z,72.75
2024-02-24T02:11:14.164Z,73.44
2024-02-24T02:12:15.869Z,73.25
2024-02-24T02:13:19.096Z,73.12
2024-02-24T02:14:20.726Z,73.34
2024-02-24T02:15:22.412Z,73.58
2024-02-24T02:16:24.270Z,73.53
2024-02-24T02:17:25.942Z,74.57
2024-02-24T02:18:28.977Z,74.78
2024-02-24T02:19:31.810Z,74.19
2024-02-24T02:20:34.446Z,74.63
2024-02-24T02:21:38.400Z,75.05
2024-02-24T02:22:39.969Z,75.64
2024-02-24T02:23:41.618Z,75.33
2024-02-24T02:24:47.000Z,74.94
2024-02-24T02:25:48.589Z,74.65
2024-02-24T02:26:50.247Z,75.15
2024-02-24T02:27:51.787Z,74.36
2024-02-24T02:28:53.326Z,75.11
2024-02-24T02:29:54.860Z,75.07
2024-02-24T02:30:56.838Z,75.45
2024-02-24T02:31:59.150Z,75.10
2024-02-24T02:33:01.200Z,75.01
2024-02-24T02:34:02.986Z,74.98
2024-02-24T02:35:06.243Z,75.46
2024-02-24T02:36:08.131Z,76.60
2024-02-24T02:37:09.731Z,76.24
2024-02-24T02:38:11.687Z,76.16
2024-02-24T02:39:13.456Z,76.06
2024-02-24T02:40:15.844Z,76.37
2024-02-24T02:41:17.469Z,76.73
2024-02-24T02:42:19.087Z,76.01
2024-02-24T02:43:20.764Z,76.14
2024-02-24T02:44:22.635Z,76.38
2024-02-24T02:45:24.325Z,76.88
2024-02-24T02:46:25.926Z,77.08
2024-02-24T02:47:27.723Z,77.41
2024-02-24T02:48:29.461Z,77.11
2024-02-24T02:49:31.315Z,77.51
2024-02-24T02:50:32.975Z,77.30
2024-02-24T02:51:34.518Z,77.38
2024-02-24T02:52:36.286Z,76.77
2024-02-24T02:53:37.895Z,77.38
2024-02-24T02:54:39.535Z,76.66
2024-02-24T02:55:41.329Z,76.96
2024-02-24T02:56:42.986Z,76.52
2024-02-24T02:57:45.234Z,76.85
2024-02-24T02:58:46.812Z,76.96
2024-02-24T02:59:48.461Z,76.81
2024-02-24T03:00:50.141Z,76.25
2024-02-24T03:01:52.861Z,76.45
2024-02-24T03:02:54.840Z,76.70
2024-02-24T03:03:56.649Z,75.58
2024-02-24T03:04:58.592Z,76.32
2024-02-24T03:06:02.450Z,76.49
2024-02-24T03:07:04.151Z,76.46
2024-02-24T03:08:05.936Z,75.98
2024-02-24T03:09:07.492Z,76.15
2024-02-24T03:10:09.569Z,76.32
2024-02-24T03:11:18.507Z,76.70
2024-02-24T03:12:20.255Z,77.16
2024-02-24T03:13:21.882Z,77.93
2024-02-24T03:14:23.466Z,78.94
2024-02-24T03:15:25.049Z,78.95
2024-02-24T03:16:26.615Z,78.18
2024-02-24T03:17:28.254Z,79.04
2024-02-24T03:18:29.937Z,79.47
2024-02-24T03:19:31.686Z,80.11
2024-02-24T03:20:33.425Z,80.76
2024-02-24T03:21:35.130Z,80.87
2024-02-24T03:22:39.293Z,81.19
2024-02-24T03:23:40.840Z,81.54
2024-02-24T03:24:43.390Z,81.59
2024-02-24T03:25:45.024Z,81.99
2024-02-24T03:26:48.047Z,81.91
2024-02-24T03:27:49.882Z,81.86
2024-02-24T03:28:51.620Z,82.04
2024-02-24T03:29:53.206Z,81.97
2024-02-24T03:30:54.747Z,81.56
2024-02-24T03:31:56.313Z,81.41
2024-02-24T03:32:58.064Z,80.51
2024-02-24T03:33:59.882Z,79.51
2024-02-24T03:35:01.785Z,79.81
2024-02-24T03:36:03.697Z,79.71
2024-02-24T03:37:05.610Z,80.13
2024-02-24T03:38:07.181Z,79.78
2024-02-24T03:39:08.857Z,79.15
2024-02-24T03:40:13.025Z,79.22
2024-02-24T03:41:14.896Z,78.37
2024-02-24T03:42:16.488Z,79.16
2024-02-24T03:43:18.000Z,78.80
2024-02-24T03:44:19.702Z,78.39
2024-02-24T03:45:21.369Z,79.13
2024-02-24T03:46:22.929Z,78.99
2024-02-24T03:47:24.532Z,78.29
2024-02-24T03:48:26.264Z,78.92
2024-02-24T03:49:28.599Z,79.18
2024-02-24T03:50:30.265Z,80.26
2024-02-24T03:51:31.883Z,80.50
2024-02-24T03:52:33.635Z,80.88
2024-02-24T03:53:35.198Z,80.13
2024-02-24T03:54:36.773Z,80.32
2024-02-24T03:55:38.300Z,80.34
2024-02-24T03:56:39.988Z,79.61
2024-02-24T03:57:41.641Z,79.82
2024-02-24T03:58:43.551Z,79.30
2024-02-24T03:59:45.272Z,79.50
2024-02-24T04:00:46.896Z,79.54
2024-02-24T04:01:48.518Z,80.01
2024-02-24T04:02:50.124Z,80.84
2024-02-24T04:03:55.266Z,80.59
2024-02-24T04:04:56.830Z,79.99
2024-02-24T04:05:58.601Z,79.20
2024-02-24T04:07:00.331Z,79.06
2024-02-24T04:08:02.152Z,78.57
2024-02-24T04:09:04.863Z,79.00
2024-02-24T04:10:07.091Z,78.86
2024-02-24T04:11:08.779Z,79.55
2024-02-24T04:12:10.718Z,79.95
2024-02-24T04:13:12.442Z,79.86
2024-02-24T04:14:14.000Z,79.78
2024-02-24T04:15:21.514Z,79.17
2024-02-24T04:16:23.066Z,78.78
2024-02-24T04:17:24.707Z,78.85
2024-02-24T04:18:26.484Z,79.02
2024-02-24T04:19:28.158Z,79.27
2024-02-24T04:20:29.885Z,80.14
2024-02-24T04:21:31.456Z,80.54
2024-02-24T04:22:33.080Z,80.15
2024-02-24T04:23:34.780Z,79.70
2024-02-24T04:24:36.397Z,79.26
2024-02-24T04:25:37.984Z,78.82
2024-02-24T04:26:39.562Z,79.01
2024-02-24T04:27:41.230Z,79.47
2024-02-24T04:28:42.765Z,79.73
2024-02-24T04:29:44.348Z,79.50
2024-02-24T04:30:45.946Z,79.01
2024-02-24T04:31:48.150Z,79.23
2024-02-24T04:32:49.875Z,79.42
2024-02-24T04:33:51.644Z,80.06
2024-02-24T04:34:53.251Z,79.74
2024-02-24T04:35:54.845Z,79.47
2024-02-24T04:36:56.419Z,79.22
2024-02-24T04:37:57.926Z,79.16
2024-02-24T04:38:59.470Z,79.11
2024-02-24T04:40:01.010Z,78.70
2024-02-24T04:41:02.657Z,78.84
2024-02-24T04:42:04.644Z,78.49
2024-02-24T04:43:06.235Z,78.89
2024-02-24T04:44:07.940Z,78.53
2024-02-24T04:45:10.082Z,78.08
2024-02-24T04:46:12.107Z,78.46
2024-02-24T04:47:13.808Z,79.15
2024-02-24T04:48:15.571Z,78.88
2024-02-24T04:49:17.337Z,78.40
2024-02-24T04:50:19.116Z,78.67
2024-02-24T04:51:22.038Z,78.68
2024-02-24T04:52:23.704Z,78.08
2024-02-24T04:53:25.372Z,79.15
2024-02-24T04:54:27.036Z,79.40
2024-02-24T04:55:28.641Z,79.42
2024-02-24T04:56:30.232Z,79.88
2024-02-24T04:57:31.863Z,79.20
2024-02-24T04:58:33.415Z,79.39
2024-02-24T04:59:36.399Z,79.38
2024-02-24T05:00:38.043Z,79.28
2024-02-24T05:01:39.612Z,79.95
2024-02-24T05:02:41.248Z,80.48
2024-02-24T05:03:42.847Z,80.45
2024-02-24T05:04:44.449Z,80.47
2024-02-24T05:05:46.161Z,81.34
2024-02-24T05:06:47.803Z,81.94
2024-02-24T05:07:49.423Z,82.83
2024-02-24T05:08:51.123Z,83.24
2024-02-24T05:09:52.738Z,82.87
2024-02-24T05:10:54.378Z,81.85
2024-02-24T05:11:56.030Z,82.30
2024-02-24T05:12:57.593Z,81.30
2024-02-24T05:13:59.151Z,80.91
2024-02-24T05:15:00.773Z,81.02
2024-02-24T05:16:06.150Z,81.51
2024-02-24T05:17:12.236Z,80.87
2024-02-24T05:18:14.466Z,80.46
2024-02-24T05:19:16.216Z,80.62
2024-02-24T05:20:17.903Z,80.75
2024-02-24T05:21:22.910Z,81.23
2024-02-24T05:22:24.699Z,80.55
2024-02-24T05:23:26.444Z,81.19
2024-02-24T05:24:28.048Z,80.61
2024-02-24T05:25:31.649Z,81.20
2024-02-24T05:26:33.371Z,81.23
2024-02-24T05:27:35.003Z,81.11
2024-02-24T05:28:36.564Z,81.35
2024-02-24T05:29:38.143Z,81.04
2024-02-24T05:30:39.740Z,80.30
2024-02-24T05:31:41.393Z,80.65
2024-02-24T05:32:42.967Z,79.97
2024-02-24T05:33:44.912Z,79.84
2024-02-24T05:34:46.657Z,80.20
2024-02-24T05:35:48.457Z,80.69
2024-02-24T05:36:50.206Z,80.20
2024-02-24T05:37:51.754Z,80.20
2024-02-24T05:38:53.440Z,80.05
2024-02-24T05:39:55.182Z,80.03
2024-02-24T05:40:56.719Z,80.39
2024-02-24T05:41:58.302Z,80.29
2024-02-24T05:42:59.836Z,79.87
2024-02-24T05:44:01.422Z,79.55
2024-02-24T05:45:03.695Z,79.74
2024-02-24T05:46:07.839Z,79.54
2024-02-24T05:47:09.606Z,79.03
2024-02-24T05:48:11.422Z,78.99
2024-02-24T05:49:13.223Z,79.00
2024-02-24T05:50:14.802Z,78.52
2024-02-24T05:51:17.972Z,78.52
2024-02-24T05:52:19.948Z,78.34
2024-02-24T05:53:22.211Z,78.46
2024-02-24T05:54:24.341Z,78.06
2024-02-24T05:55:26.011Z,77.85
2024-02-24T05:56:27.610Z,78.18
2024-02-24T05:57:29.331Z,77.43
2024-02-24T05:58:31.792Z,77.66
2024-02-24T05:59:33.513Z,77.15
2024-02-24T06:00:35.392Z,77.37
2024-02-24T06:01:37.013Z,76.92
2024-02-24T06:02:39.281Z,76.47
2024-02-24T06:03:40.935Z,76.46
2024-02-24T06:04:42.496Z,76.37
2024-02-24T06:05:44.118Z,76.70
2024-02-24T06:06:49.001Z,76.07
2024-02-24T06:07:52.630Z,76.12
2024-02-24T06:08:54.699Z,76.15
2024-02-24T06:09:56.298Z,76.53
2024-02-24T06:10:57.901Z,76.43
2024-02-24T06:11:59.544Z,76.14
2024-02-24T06:13:02.265Z,76.21
2024-02-24T06:14:03.874Z,75.93
2024-02-24T06:15:05.913Z,75.27
2024-02-24T06:16:08.299Z,75.51
2024-02-24T06:17:12.334Z,75.23
2024-02-24T06:18:16.857Z,75.15
2024-02-24T06:19:18.663Z,75.12
2024-02-24T06:20:24.657Z,75.00
2024-02-24T06:21:29.583Z,74.73
2024-02-24T06:22:31.105Z,74.25
2024-02-24T06:23:32.739Z,74.32
2024-02-24T06:24:34.367Z,74.31
2024-02-24T06:25:35.925Z,74.15
2024-02-24T06:26:37.540Z,74.10
2024-02-24T06:27:39.098Z,74.26
2024-02-24T06:28:40.648Z,74.32
2024-02-24T06:29:43.108Z,74.29
2024-02-24T06:30:46.631Z,74.14
2024-02-24T06:31:48.175Z,74.21
2024-02-24T06:32:49.936Z,74.23
2024-02-24T06:33:51.658Z,72.89
2024-02-24T06:34:53.431Z,72.96
2024-02-24T06:35:55.254Z,72.74
2024-02-24T06:36:56.875Z,72.40
2024-02-24T06:37:58.622Z,72.55
2024-02-24T06:39:00.220Z,72.77
2024-02-24T06:40:01.850Z,71.85
2024-02-24T06:41:04.221Z,71.79
2024-02-24T06:42:05.852Z,71.44
2024-02-24T06:43:07.401Z,70.96
2024-02-24T06:44:08.985Z,71.07
2024-02-24T06:45:10.611Z,71.13
2024-02-24T06:46:12.607Z,70.82
2024-02-24T06:47:24.598Z,70.69
2024-02-24T06:48:30.742Z,70.57
2024-02-24T06:49:32.647Z,69.70
2024-02-24T06:50:34.397Z,69.59
2024-02-24T06:51:36.098Z,69.34
2024-02-24T06:52:37.810Z,69.78
2024-02-24T06:53:39.787Z,69.27
2024-02-24T06:54:41.617Z,70.04
2024-02-24T06:55:43.170Z,70.02
2024-02-24T06:56:44.836Z,69.66
2024-02-24T06:57:46.743Z,68.25
2024-02-24T06:58:48.314Z,68.25
2024-02-24T06:59:49.967Z,68.32
2024-02-24T07:00:51.767Z,68.01
2024-02-24T07:01:55.898Z,67.40
2024-02-24T07:02:57.653Z,67.99
2024-02-24T07:03:59.521Z,67.93
2024-02-24T07:05:03.510Z,67.92
2024-02-24T07:06:05.698Z,67.94
2024-02-24T07:07:08.981Z,68.53
2024-02-24T07:08:10.716Z,68.84
2024-02-24T07:09:12.422Z,68.92
2024-02-24T07:10:14.159Z,68.50
2024-02-24T07:11:15.845Z,68.07
2024-02-24T07:12:17.632Z,68.92
2024-02-24T07:13:19.195Z,69.10
2024-02-24T07:14:21.972Z,71.84
2024-02-24T07:15:25.106Z,70.68
2024-02-24T07:16:26.662Z,72.63
2024-02-24T07:17:29.247Z,73.53
2024-02-24T07:18:31.007Z,73.10
2024-02-24T07:19:32.792Z,71.29
2024-02-24T07:20:34.402Z,72.77
2024-02-24T07:21:42.217Z,71.08
2024-02-24T07:22:43.864Z,66.97
2024-02-24T07:23:45.468Z,68.34
2024-02-24T07:24:47.291Z,66.42
2024-02-24T07:25:48.903Z,66.24
2024-02-24T07:26:51.110Z,69.28
2024-02-24T07:27:52.820Z,68.56
2024-02-24T07:28:54.416Z,66.09
2024-02-24T07:29:56.137Z,64.57
2024-02-24T07:30:57.881Z,65.22
2024-02-24T07:31:59.505Z,66.86
2024-02-24T07:33:01.957Z,63.23
2024-02-24T07:34:04.816Z,61.28
2024-02-24T07:35:07.163Z,60.92
2024-02-24T07:36:08.904Z,59.00
2024-02-24T07:37:10.515Z,59.48
2024-02-24T07:38:12.099Z,59.28
2024-02-24T07:39:13.709Z,55.71
2024-02-24T07:40:15.367Z,59.01
2024-02-24T07:41:16.932Z,54.17
2024-02-24T07:42:18.514Z,53.05
2024-02-24T07:43:20.115Z,52.61
2024-02-24T07:44:21.782Z,56.20
2024-02-24T07:45:23.792Z,54.82
2024-02-24T07:46:30.444Z,55.51
2024-02-24T07:47:32.356Z,52.24
2024-02-24T07:48:34.080Z,51.42
2024-02-24T07:49:36.828Z,49.65
2024-02-24T07:50:38.578Z,53.23
2024-02-24T07:51:40.326Z,52.25
2024-02-24T07:52:42.755Z,53.05
2024-02-24T07:53:45.246Z,53.30
2024-02-24T07:54:47.071Z,53.04
2024-02-24T07:55:48.821Z,51.71
2024-02-24T07:56:50.563Z,51.09
2024-02-24T07:57:52.155Z,52.42
2024-02-24T07:58:53.959Z,48.26
2024-02-24T07:59:56.623Z,50.97
2024-02-24T08:00:58.217Z,47.56
2024-02-24T08:01:59.837Z,45.33
2024-02-24T08:03:01.686Z,43.79
2024-02-24T08:04:03.876Z,46.54
2024-02-24T08:05:05.931Z,47.06
2024-02-24T08:06:07.868Z,45.89
2024-02-24T08:07:09.551Z,46.01
2024-02-24T08:08:11.239Z,45.34
2024-02-24T08:09:12.837Z,44.66
2024-02-24T08:10:14.559Z,43.75
2024-02-24T08:11:16.172Z,42.61
2024-02-24T08:12:17.856Z,42.74
2024-02-24T08:13:19.680Z,41.22
2024-02-24T08:14:21.321Z,40.72
2024-02-24T08:15:22.881Z,43.99
2024-02-24T08:16:24.456Z,42.36
2024-02-24T08:17:26.180Z,42.45
2024-02-24T08:18:28.126Z,42.83
2024-02-24T08:19:34.758Z,40.36
2024-02-24T08:20:36.913Z,42.12
2024-02-24T08:21:39.278Z,41.41
2024-02-24T08:22:41.346Z,39.61
2024-02-24T08:23:43.749Z,40.53
2024-02-24T08:24:45.347Z,39.65
2024-02-24T08:25:46.942Z,38.20
2024-02-24T08:26:49.536Z,39.61
2024-02-24T08:27:51.261Z,38.37
2024-02-24T08:28:53.140Z,39.58
2024-02-24T08:29:54.876Z,38.64
2024-02-24T08:30:57.205Z,37.92
2024-02-24T08:31:59.521Z,39.05
2024-02-24T08:33:01.196Z,35.67
2024-02-24T08:34:03.507Z,35.08
2024-02-24T08:35:05.641Z,36.60
2024-02-24T08:36:07.747Z,38.36
2024-02-24T08:37:09.863Z,37.49
2024-02-24T08:38:11.515Z,35.78
2024-02-24T08:39:13.189Z,37.19
2024-02-24T08:40:14.816Z,36.60
2024-02-24T08:41:17.382Z,36.77
2024-02-24T08:42:18.985Z,37.95
2024-02-24T08:43:20.507Z,36.69
2024-02-24T08:44:22.110Z,37.67
2024-02-24T08:45:23.695Z,37.98
2024-02-24T08:46:25.613Z,39.08
2024-02-24T08:47:27.538Z,36.49
2024-02-24T08:48:29.698Z,37.24
2024-02-24T08:49:31.417Z,37.19
2024-02-24T08:50:33.076Z,37.00
2024-02-24T08:51:34.748Z,36.32
2024-02-24T08:52:43.155Z,36.26
2024-02-24T08:53:51.589Z,36.07
2024-02-24T08:54:53.503Z,36.56
2024-02-24T08:55:55.116Z,36.03
2024-02-24T08:56:56.707Z,36.43
2024-02-24T08:57:58.486Z,34.82
2024-02-24T08:59:00.086Z,35.09
2024-02-24T09:00:01.674Z,35.23
2024-02-24T09:01:03.408Z,34.87
2024-02-24T09:02:05.687Z,35.17
2024-02-24T09:03:07.295Z,34.47
2024-02-24T09:04:08.979Z,33.70
2024-02-24T09:05:10.810Z,33.71
2024-02-24T09:06:12.573Z,34.59
2024-02-24T09:07:14.343Z,32.76
2024-02-24T09:08:16.318Z,32.93
2024-02-24T09:09:18.016Z,33.82
2024-02-24T09:10:19.640Z,34.26
2024-02-24T09:11:21.321Z,34.35
2024-02-24T09:12:23.074Z,35.01
2024-02-24T09:13:24.836Z,35.67
2024-02-24T09:14:26.418Z,34.83
2024-02-24T09:15:31.154Z,34.23
2024-02-24T09:16:33.847Z,34.81
2024-02-24T09:17:35.539Z,33.47
2024-02-24T09:18:37.334Z,33.59
2024-02-24T09:19:39.086Z,33.29
2024-02-24T09:20:40.738Z,32.84
2024-02-24T09:21:46.142Z,32.30
2024-02-24T09:22:48.794Z,32.47
2024-02-24T09:23:50.621Z,33.89
2024-02-24T09:24:52.250Z,35.20
2024-02-24T09:25:53.867Z,34.71
2024-02-24T09:26:55.409Z,34.10
2024-02-24T09:27:56.982Z,35.27
2024-02-24T09:28:58.542Z,35.24
2024-02-24T09:30:00.229Z,35.76
2024-02-24T09:31:02.262Z,33.80
2024-02-24T09:32:03.969Z,34.28
2024-02-24T09:33:05.688Z,34.12
2024-02-24T09:34:09.827Z,32.91
2024-02-24T09:35:12.492Z,33.37
2024-02-24T09:36:14.041Z,31.36
2024-02-24T09:37:15.601Z,30.86
2024-02-24T09:38:17.360Z,32.25
2024-02-24T09:39:18.914Z,30.85
2024-02-24T09:40:20.611Z,30.13
2024-02-24T09:41:22.308Z,30.88
2024-02-24T09:42:27.768Z,31.74
2024-02-24T09:43:29.757Z,30.25
2024-02-24T09:44:31.443Z,30.92
2024-02-24T09:45:43.034Z,31.09
2024-02-24T09:46:45.226Z,31.45
2024-02-24T09:47:46.911Z,31.59
2024-02-24T09:48:49.965Z,29.96
2024-02-24T09:49:53.526Z,31.39
2024-02-24T09:50:55.345Z,31.06
2024-02-24T09:51:57.262Z,30.18
2024-02-24T09:52:58.966Z,30.34
2024-02-24T09:54:00.579Z,29.52
2024-02-24T09:55:04.312Z,29.64
2024-02-24T09:56:06.973Z,28.75
2024-02-24T09:57:10.791Z,28.99
2024-02-24T09:58:12.665Z,29.41
2024-02-24T09:59:14.526Z,29.12
2024-02-24T10:00:16.360Z,28.96
2024-02-24T10:01:19.026Z,29.39
2024-02-24T10:02:20.792Z,28.37
2024-02-24T10:03:23.275Z,27.90
2024-02-24T10:04:25.462Z,28.23
2024-02-24T10:05:27.640Z,28.01
2024-02-24T10:06:29.536Z,27.27
2024-02-24T10:07:31.650Z,27.28
2024-02-24T10:08:33.244Z,28.46
2024-02-24T10:09:34.918Z,27.51
2024-02-24T10:10:37.642Z,28.03
2024-02-24T10:11:40.879Z,27.09
2024-02-24T10:13:05.979Z,26.49
2024-02-24T10:14:07.757Z,26.56
2024-02-24T10:15:09.868Z,27.04
2024-02-24T10:16:11.571Z,26.60
2024-02-24T10:17:15.321Z,27.01
2024-02-24T10:18:19.845Z,26.08
2024-02-24T10:19:23.789Z,26.06
2024-02-24T10:20:26.904Z,26.80
2024-02-24T10:21:28.542Z,27.15
2024-02-24T10:22:30.092Z,26.19
2024-02-24T10:23:31.692Z,24.81
2024-02-24T10:24:35.345Z,24.77
2024-02-24T10:25:37.080Z,25.63
2024-02-24T10:26:38.852Z,25.84
2024-02-24T10:27:40.482Z,24.47
2024-02-24T10:28:42.382Z,25.23
2024-02-24T10:29:51.041Z,25.09
2024-02-24T10:30:53.466Z,25.39
2024-02-24T10:31:55.524Z,24.91
2024-02-24T10:33:00.271Z,25.85
2024-02-24T10:34:02.473Z,25.61
2024-02-24T10:35:04.776Z,25.96
2024-02-24T10:36:09.619Z,25.69
2024-02-24T10:37:11.378Z,25.75
2024-02-24T10:38:23.560Z,25.10
2024-02-24T10:39:37.242Z,24.86
2024-02-24T10:40:39.414Z,23.52
2024-02-24T10:41:42.364Z,23.82
2024-02-24T10:42:44.750Z,24.26
2024-02-24T10:43:51.187Z,24.81
2024-02-24T10:44:53.616Z,24.72
2024-02-24T10:45:55.147Z,23.14
2024-02-24T10:46:56.684Z,23.68
2024-02-24T10:47:58.259Z,24.67
2024-02-24T10:49:00.909Z,23.98
2024-02-24T10:50:04.778Z,23.51
2024-02-24T10:51:06.521Z,24.72
2024-02-24T10:52:09.610Z,23.45
2024-02-24T10:53:15.111Z,23.92
2024-02-24T10:54:22.731Z,22.71
2024-02-24T10:55:24.789Z,24.25
2024-02-24T10:56:26.932Z,24.61
2024-02-24T10:57:29.584Z,23.86
2024-02-24T10:58:33.068Z,24.85
2024-02-24T10:59:35.095Z,23.84
2024-02-24T11:00:37.307Z,23.07
2024-02-24T11:01:48.370Z,24.82
2024-02-24T11:02:51.786Z,25.37
2024-02-24T11:03:55.155Z,23.74
2024-02-24T11:05:01.809Z,24.78
2024-02-24T11:06:03.719Z,23.18
2024-02-24T11:07:18.289Z,23.39
2024-02-24T11:08:39.482Z,23.57
2024-02-24T11:09:41.269Z,24.33
2024-02-24T11:10:43.278Z,24.44
2024-02-24T11:11:45.148Z,24.06
2024-02-24T11:12:50.572Z,23.16
2024-02-24T11:14:00.323Z,24.31
2024-02-24T11:15:17.043Z,25.00
2024-02-24T11:16:21.533Z,24.76
2024-02-24T11:17:45.903Z,24.96
2024-02-24T11:18:50.336Z,25.06
2024-02-24T11:19:52.031Z,25.45
2024-02-24T11:20:54.387Z,26.17
2024-02-24T11:21:59.555Z,24.80
2024-02-24T11:23:24.384Z,25.98
2024-02-24T11:24:34.337Z,25.96
2024-02-24T11:25:35.880Z,25.44
2024-02-24T11:26:38.710Z,26.19
2024-02-24T11:27:41.905Z,25.88
2024-02-24T11:29:00.048Z,25.10
2024-02-24T11:30:35.375Z,24.71
2024-02-24T11:31:38.194Z,26.54
2024-02-24T11:32:39.834Z,26.32
2024-02-24T11:33:41.619Z,26.65
2024-02-24T11:34:45.889Z,25.88
2024-02-24T11:35:50.489Z,26.67
2024-02-24T11:36:52.577Z,25.49
2024-02-24T11:37:55.044Z,26.66
2024-02-24T11:38:58.614Z,27.05
2024-02-24T11:40:00.611Z,27.39
2024-02-24T11:41:06.632Z,27.72
2024-02-24T11:42:11.217Z,28.28
2024-02-24T11:43:13.407Z,28.08
2024-02-24T11:44:15.087Z,27.03
2024-02-24T11:45:16.916Z,27.59
2024-02-24T11:46:18.475Z,27.83
2024-02-24T11:47:20.570Z,28.86
2024-02-24T11:48:23.094Z,29.69
2024-02-24T11:49:25.153Z,29.44
2024-02-24T11:50:26.802Z,28.81
2024-02-24T11:51:29.317Z,29.12
2024-02-24T11:52:31.106Z,28.86
2024-02-24T11:53:33.435Z,30.03
2024-02-24T11:54:37.029Z,28.75
2024-02-24T11:55:38.715Z,29.24
2024-02-24T11:56:40.696Z,29.54
2024-02-24T11:57:42.690Z,29.53
2024-02-24T11:58:44.592Z,30.05
2024-02-24T11:59:49.345Z,29.36
2024-02-24T12:00:50.945Z,29.17
2024-02-24T12:01:53.170Z,28.43
2024-02-24T12:02:56.478Z,28.15
2024-02-24T12:03:59.068Z,28.80
2024-02-24T12:05:14.595Z,28.93
2024-02-24T12:06:17.364Z,29.44
2024-02-24T12:07:19.844Z,30.05
2024-02-24T12:08:23.170Z,29.64
2024-02-24T12:09:25.504Z,29.51
2024-02-24T12:10:27.276Z,29.43
2024-02-24T12:11:29.169Z,29.37
2024-02-24T12:12:30.875Z,29.46
2024-02-24T12:13:32.431Z,30.55
2024-02-24T12:14:34.056Z,30.07
2024-02-24T12:15:36.812Z,29.81
2024-02-24T12:16:39.398Z,30.01
2024-02-24T12:17:48.386Z,30.34
2024-02-24T12:18:50.212Z,31.05
2024-02-24T12:19:51.856Z,29.69
2024-02-24T12:20:56.367Z,29.88
2024-02-24T12:21:58.007Z,30.56
2024-02-24T12:23:04.833Z,30.01
2024-02-24T12:24:06.608Z,30.52
2024-02-24T12:25:17.466Z,31.01
2024-02-24T12:26:19.279Z,30.66
2024-02-24T12:27:23.110Z,30.21
2024-02-24T12:28:25.393Z,30.52
2024-02-24T12:29:29.059Z,31.37
2024-02-24T12:30:39.271Z,31.50
2024-02-24T12:31:41.306Z,31.42
2024-02-24T12:32:44.268Z,31.25
2024-02-24T12:33:47.014Z,30.80
2024-02-24T12:34:48.783Z,31.10
2024-02-24T12:35:50.545Z,31.45
2024-02-24T12:36:57.201Z,31.70
2024-02-24T12:37:59.030Z,32.22
2024-02-24T12:39:00.694Z,31.23
2024-02-24T12:40:05.324Z,31.07
2024-02-24T12:41:08.861Z,32.40
2024-02-24T12:42:10.444Z,32.06
2024-02-24T12:43:12.552Z,31.87
2024-02-24T12:44:14.201Z,33.00
2024-02-24T12:45:15.760Z,31.89
2024-02-24T12:46:20.702Z,31.73
2024-02-24T12:47:22.461Z,30.93
2024-02-24T12:48:24.207Z,31.73
2024-02-24T12:49:25.967Z,31.73
2024-02-24T12:50:29.225Z,31.38
2024-02-24T12:51:31.002Z,31.25
2024-02-24T12:52:35.853Z,31.93
2024-02-24T12:53:37.652Z,31.38
2024-02-24T12:54:39.267Z,32.92
2024-02-24T12:55:42.107Z,32.17
2024-02-24T12:56:43.715Z,30.99
2024-02-24T12:57:45.638Z,30.33
2024-02-24T12:58:47.221Z,31.21
2024-02-24T12:59:48.795Z,31.05
2024-02-24T13:00:52.529Z,31.66
2024-02-24T13:01:54.105Z,30.77
2024-02-24T13:03:00.457Z,31.06
2024-02-24T13:04:02.247Z,30.94
2024-02-24T13:05:05.024Z,30.46
2024-02-24T13:06:06.860Z,31.29
2024-02-24T13:07:08.664Z,30.90
2024-02-24T13:08:10.255Z,31.02
2024-02-24T13:09:11.886Z,30.16
2024-02-24T13:10:13.678Z,30.24
2024-02-24T13:11:15.400Z,30.25
2024-02-24T13:12:17.743Z,29.88
2024-02-24T13:13:19.358Z,28.88
2024-02-24T13:14:20.910Z,28.73
2024-02-24T13:15:24.676Z,29.24
2024-02-24T13:16:26.208Z,29.56
2024-02-24T13:17:27.933Z,29.88
2024-02-24T13:18:29.882Z,29.63
2024-02-24T13:19:31.623Z,29.27
2024-02-24T13:20:33.197Z,29.59
2024-02-24T13:21:34.919Z,29.04
2024-02-24T13:22:42.142Z,28.88
2024-02-24T13:23:43.974Z,28.68
2024-02-24T13:24:46.152Z,29.18
2024-02-24T13:25:47.696Z,29.33